地図

経路データ

SID SEASON NUMBER BASIN SUBBASIN NAME ISO_TIME NATURE LAT LON WMO_WIND WMO_PRES WMO_AGENCY TRACK_TYPE DIST2LAND LANDFALL IFLAG USA_AGENCY USA_ATCF_ID USA_LAT USA_LON USA_RECORD USA_STATUS USA_WIND USA_PRES USA_SSHS USA_R34_NE USA_R34_SE USA_R34_SW USA_R34_NW USA_R50_NE USA_R50_SE USA_R50_SW USA_R50_NW USA_R64_NE USA_R64_SE USA_R64_SW USA_R64_NW USA_POCI USA_ROCI USA_RMW USA_EYE TOKYO_LAT TOKYO_LON TOKYO_GRADE TOKYO_WIND TOKYO_PRES TOKYO_R50_DIR TOKYO_R50_LONG TOKYO_R50_SHORT TOKYO_R30_DIR TOKYO_R30_LONG TOKYO_R30_SHORT TOKYO_LAND CMA_LAT CMA_LON CMA_CAT CMA_WIND CMA_PRES HKO_LAT HKO_LON HKO_CAT HKO_WIND HKO_PRES NEWDELHI_LAT NEWDELHI_LON NEWDELHI_GRADE NEWDELHI_WIND NEWDELHI_PRES NEWDELHI_CI NEWDELHI_DP NEWDELHI_POCI REUNION_LAT REUNION_LON REUNION_TYPE REUNION_WIND REUNION_PRES REUNION_TNUM REUNION_CI REUNION_RMW REUNION_R34_NE REUNION_R34_SE REUNION_R34_SW REUNION_R34_NW REUNION_R50_NE REUNION_R50_SE REUNION_R50_SW REUNION_R50_NW REUNION_R64_NE REUNION_R64_SE REUNION_R64_SW REUNION_R64_NW BOM_LAT BOM_LON BOM_TYPE BOM_WIND BOM_PRES BOM_TNUM BOM_CI BOM_RMW BOM_R34_NE BOM_R34_SE BOM_R34_SW BOM_R34_NW BOM_R50_NE BOM_R50_SE BOM_R50_SW BOM_R50_NW BOM_R64_NE BOM_R64_SE BOM_R64_SW BOM_R64_NW BOM_ROCI BOM_POCI BOM_EYE BOM_POS_METHOD BOM_PRES_METHOD NADI_LAT NADI_LON NADI_CAT NADI_WIND NADI_PRES WELLINGTON_LAT WELLINGTON_LON WELLINGTON_WIND WELLINGTON_PRES DS824_LAT DS824_LON DS824_STAGE DS824_WIND DS824_PRES TD9636_LAT TD9636_LON TD9636_STAGE TD9636_WIND TD9636_PRES TD9635_LAT TD9635_LON TD9635_WIND TD9635_PRES TD9635_ROCI NEUMANN_LAT NEUMANN_LON NEUMANN_CLASS NEUMANN_WIND NEUMANN_PRES MLC_LAT MLC_LON MLC_CLASS MLC_WIND MLC_PRES USA_GUST BOM_GUST BOM_GUST_PER REUNION_GUST REUNION_GUST_PER USA_SEAHGT USA_SEARAD_NE USA_SEARAD_SE USA_SEARAD_SW USA_SEARAD_NW STORM_SPEED STORM_DIR
1960012S12081 1960 1 SI MM NOT_NAMED 1960-01-11 18:00:00 TS -12.4000 81.0000 main 2050 2050 O________OO___ jtwc_sh SH081960 -12.4000 81.0000 -1 -12.4000 81.0000 TC -12.4000 81.0000 7 5 282
1960012S12081 1960 1 SI MM NOT_NAMED 1960-01-11 21:00:00 TS -12.3497 80.7489 main 2039 2039 P________PP___ SH081960 -12.3400 80.7500 -1 -12.3400 80.7500 TC -12.3690 80.7468 7 5 280
1960012S12081 1960 1 SI MM NOT_NAMED 1960-01-12 00:00:00 TS -12.3134 80.4983 main 2039 2039 O________OP___ jtwc_sh SH081960 -12.3000 80.5000 -1 -12.3000 80.5000 TC -12.3402 80.4949 7 5 276
1960012S12081 1960 1 SI MM NOT_NAMED 1960-01-12 03:00:00 TS -12.3004 80.2485 main 2039 2039 P________PP___ SH081960 -12.2925 80.2500 -1 -12.2925 80.2500 TC -12.3164 80.2456 7 5 272
1960012S12081 1960 1 SI MM NOT_NAMED 1960-01-12 06:00:00 TS -12.3000 80.0000 main 2040 2040 O________OO___ jtwc_sh SH081960 -12.3000 80.0000 -1 -12.3000 80.0000 TC 35 -12.3000 80.0000 2 5 270
1960012S12081 1960 1 SI MM NOT_NAMED 1960-01-12 09:00:00 TS -12.2975 79.7527 main 2041 2041 P________PP___ SH081960 -12.3000 79.7500 -1 -12.3000 79.7500 TC 35 -12.2927 79.7582 2 5 270
1960012S12081 1960 1 SI MM NOT_NAMED 1960-01-12 12:00:00 TS -12.2974 79.5050 main 2042 2042 O________OP___ jtwc_sh SH081960 -12.3000 79.5000 -1 -12.3000 79.5000 TC 35 -12.2923 79.5150 2 5 270
1960012S12081 1960 1 SI MM NOT_NAMED 1960-01-12 15:00:00 TS -12.2986 79.2548 main 2044 2044 P________PP___ SH081960 -12.3000 79.2500 -1 -12.3000 79.2500 TC 35 -12.2958 79.2644 2 5 270
1960012S12081 1960 1 SI MM NOT_NAMED 1960-01-12 18:00:00 TS -12.3000 79.0000 main 2046 2046 O________OO___ jtwc_sh SH081960 -12.3000 79.0000 -1 -12.3000 79.0000 TC 35 -12.3000 79.0000 2 5 271
1960012S12081 1960 1 SI MM NOT_NAMED 1960-01-12 21:00:00 TS -12.2889 78.7696 main 2048 2048 P________PP___ SH081960 -12.2999 78.7650 -1 -12.2999 78.7650 TC 35 -12.2668 78.7788 2 5 272
1960012S12081 1960 1 SI MM NOT_NAMED 1960-01-13 00:00:00 TS -12.2796 78.5113 main 2052 2052 O________OP___ jtwc_sh SH081960 -12.3000 78.5000 -1 -12.3000 78.5000 TC 35 -12.2388 78.5340 2 5 272
1960012S12081 1960 1 SI MM NOT_NAMED 1960-01-13 03:00:00 TS -12.2653 78.2140 main 2056 2056 P________PP___ SH081960 -12.2773 78.2098 -1 -12.2773 78.2098 TC 35 -12.2415 78.2223 2 7 268
1960012S12081 1960 1 SI MM NOT_NAMED 1960-01-13 06:00:00 TS -12.3000 77.8000 main 2062 2062 O________OO___ jtwc_sh SH081960 -12.3000 77.8000 -1 -12.3000 77.8000 TC 35 -12.3000 77.8000 2 10 261
1960012S12081 1960 1 SI MM NOT_NAMED 1960-01-13 09:00:00 TS -12.4227 77.2091 main 2084 2084 P________PP___ SH081960 -12.4125 77.2099 -1 -12.4125 77.2099 TC 35 -12.4432 77.2073 2 13 256
1960012S12081 1960 1 SI MM NOT_NAMED 1960-01-13 12:00:00 TS -12.6137 76.5019 main 2121 2092 O________OP___ jtwc_sh SH081960 -12.6000 76.5000 -1 -12.6000 76.5000 TC 35 -12.6410 76.5056 2 15 253
1960012S12081 1960 1 SI MM NOT_NAMED 1960-01-13 15:00:00 TS -12.8511 75.7504 main 2087 1999 P________PP___ SH081960 -12.8425 75.7501 -1 -12.8425 75.7501 TC 35 -12.8681 75.7509 2 15 252
1960012S12081 1960 1 SI MM NOT_NAMED 1960-01-13 18:00:00 TS -13.1000 75.0000 main 1999 1931 O________OO___ jtwc_sh SH081960 -13.1000 75.0000 -1 -13.1000 75.0000 TC 35 -13.1000 75.0000 2 15 252
1960012S12081 1960 1 SI MM NOT_NAMED 1960-01-13 21:00:00 TS -13.3073 74.3323 main 1921 1853 P________PP___ SH081960 -13.3072 74.3348 -1 -13.3072 74.3348 TC 35 -13.3076 74.3274 2 13 252
1960012S12081 1960 1 SI MM NOT_NAMED 1960-01-14 00:00:00 TS -13.5048 73.6900 main 1853 1785 O________OP___ jtwc_sh SH081960 -13.5000 73.7000 -1 -13.5000 73.7000 TC 35 -13.5143 73.6699 2 13 252
1960012S12081 1960 1 SI MM NOT_NAMED 1960-01-14 03:00:00 TS -13.7046 73.0374 main 1775 1708 P________PP___ SH081960 -13.6999 73.0424 -1 -13.6999 73.0424 TC 35 -13.7139 73.0274 2 13 252
1960012S12081 1960 1 SI MM NOT_NAMED 1960-01-14 06:00:00 TS -13.9000 72.4000 main 1708 1640 O________OO___ jtwc_sh SH081960 -13.9000 72.4000 -1 -13.9000 72.4000 TC 35 -13.9000 72.4000 2 13 252
1960012S12081 1960 1 SI MM NOT_NAMED 1960-01-14 09:00:00 TS -14.1030 71.7982 main 1640 1572 P________PP___ SH081960 -14.1148 71.7925 -1 -14.1148 71.7925 TC 35 -14.0795 71.8097 2 12 252
1960012S12081 1960 1 SI MM NOT_NAMED 1960-01-14 12:00:00 TS -14.2811 71.2099 main 1572 1519 O________OP___ jtwc_sh SH081960 -14.3000 71.2000 -1 -14.3000 71.2000 TC 35 -14.2434 71.2297 2 12 255
1960012S12081 1960 1 SI MM NOT_NAMED 1960-01-14 15:00:00 TS -14.4100 70.6265 main 1509 1447 P________PP___ SH081960 -14.4222 70.6224 -1 -14.4222 70.6224 TC 35 -14.3857 70.6348 2 12 259
1960012S12081 1960 1 SI MM NOT_NAMED 1960-01-14 18:00:00 TS -14.5000 70.0000 main 1447 1375 O________OO___ jtwc_sh SH081960 -14.5000 70.0000 -1 -14.5000 70.0000 TC 35 -14.5000 70.0000 2 13 263
1960012S12081 1960 1 SI MM NOT_NAMED 1960-01-14 21:00:00 TS -14.5662 69.2657 main 1375 1300 P________PP___ SH081960 -14.5575 69.2724 -1 -14.5575 69.2724 TC 35 -14.5835 69.2523 2 15 266
1960012S12081 1960 1 SI MM NOT_NAMED 1960-01-15 00:00:00 TS -14.6129 68.4899 main 1300 1229 O________OP___ jtwc_sh SH081960 -14.6000 68.5000 -1 -14.6000 68.5000 TC 35 -14.6386 68.4697 2 15 267
1960012S12081 1960 1 SI MM NOT_NAMED 1960-01-15 03:00:00 TS -14.6581 67.7091 main 1220 1150 P________PP___ SH081960 -14.6501 67.7125 -1 -14.6501 67.7125 TC 35 -14.6742 67.7023 2 15 264
1960012S12081 1960 1 SI MM NOT_NAMED 1960-01-15 06:00:00 TS -14.7692 66.9385 reunion main 1141 1090 O____O___OO___ jtwc_sh SH081960 -14.7000 67.0000 -1 -15.6000 66.2000 99 9.90000 -14.7000 67.0000 TC 35 -14.7000 67.0000 2 13 260
1960012S12081 1960 1 SI MM NOT_NAMED 1960-01-15 09:00:00 TS -14.8722 66.4047 main 1090 1054 P____P___PP___ SH081960 -14.7571 66.4625 -1 -15.6074 66.1023 99 -14.7571 66.4625 TC 35 -14.7348 66.4403 2 9 259
1960012S12081 1960 1 SI MM NOT_NAMED 1960-01-15 12:00:00 TS -14.9530 65.9855 main 1048 1013 O____P___OP___ jtwc_sh SH081960 -14.8000 66.0000 -1 -15.6141 65.9973 99 -14.8000 66.0000 TC 35 -14.7631 65.9475 2 8 260
1960012S12081 1960 1 SI MM NOT_NAMED 1960-01-15 15:00:00 TS -15.0047 65.5971 main 1013 978 P____P___PP___ SH081960 -14.8073 65.5149 -1 -15.6194 65.8775 99 -14.8073 65.5149 TC 35 -14.7850 65.4809 2 8 266
1960012S12081 1960 1 SI MM NOT_NAMED 1960-01-15 18:00:00 TS -15.0057 65.1839 main 978 936 O____P___OO___ jtwc_sh SH081960 -14.8000 65.0000 -1 -15.6227 65.7356 99 -14.8000 65.0000 TC 35 -14.8000 65.0000 2 9 270
1960012S12081 1960 1 SI MM NOT_NAMED 1960-01-15 21:00:00 TS -15.0077 64.6943 main 936 894 P____P___PP___ SH081960 -14.8000 64.4075 -1 -15.6231 65.5643 99 -14.8000 64.4075 TC 35 -14.8077 64.3978 2 10 270
1960012S12081 1960 1 SI MM NOT_NAMED 1960-01-16 00:00:00 TS -15.0071 64.1847 main 894 854 O____P___OP___ jtwc_sh SH081960 -14.8000 63.8000 -1 -15.6200 65.3562 99 -14.8000 63.8000 TC 35 -14.8083 63.7825 2 10 270
1960012S12081 1960 1 SI MM NOT_NAMED 1960-01-16 03:00:00 TS -15.0043 63.6787 main 854 815 P____P___PP___ SH081960 -14.8000 63.2050 -1 -15.6126 65.1039 99 -14.8000 63.2050 TC 50 -14.8047 63.2009 2 9 270
1960012S12081 1960 1 SI MM NOT_NAMED 1960-01-16 06:00:00 TS -15.0000 63.2250 reunion main 815 793 O____O___OO___ jtwc_sh SH081960 -14.8000 62.7000 -1 -15.6000 64.8000 99 9.90000 -14.8000 62.7000 TC 65 -14.8000 62.7000 4 8 271
1960012S12081 1960 1 SI MM NOT_NAMED 1960-01-16 09:00:00 TS -14.9932 62.8713 main 793 771 P____P___PP___ SH081960 -14.7998 62.3550 -1 -15.5820 64.4405 99 -14.7998 62.3550 TC 65 -14.7911 62.3347 4 6 271
1960012S12081 1960 1 SI MM NOT_NAMED 1960-01-16 12:00:00 TS -14.9864 62.5717 main 771 750 O____P___OP___ jtwc_sh SH081960 -14.8000 62.1000 -1 -15.5616 64.0342 99 -14.8000 62.1000 TC 65 -14.7840 62.0525 4 6 272
1960012S12081 1960 1 SI MM NOT_NAMED 1960-01-16 15:00:00 TS -14.9781 62.2744 main 750 730 P____P___PP___ SH081960 -14.7924 61.8425 -1 -15.5424 63.5936 99 -14.7924 61.8425 TC 65 -14.7850 61.8190 4 6 270
1960012S12081 1960 1 SI MM NOT_NAMED 1960-01-16 18:00:00 TS -14.9821 61.9827 main 730 710 O____P___OO___ jtwc_sh SH081960 -14.8000 61.6000 -1 -15.5282 63.1307 99 -14.8000 61.6000 TC 65 -14.8000 61.6000 4 6 267
1960012S12081 1960 1 SI MM NOT_NAMED 1960-01-16 21:00:00 TS -15.0098 61.6752 main 710 692 P____P___PP___ SH081960 -14.8425 61.3500 -1 -15.5228 62.6578 99 -14.8425 61.3500 TC 65 -14.8314 61.3428 4 6 263
1960012S12081 1960 1 SI MM NOT_NAMED 1960-01-17 00:00:00 TS -15.0519 61.3699 main 683 665 O____P___OP___ jtwc_sh SH081960 -14.9000 61.1000 -1 -15.5303 62.1870 99 -14.9000 61.1000 TC 65 -14.8773 61.0925 4 6 262
1960012S12081 1960 1 SI MM NOT_NAMED 1960-01-17 03:00:00 TS -15.0973 61.0691 main 665 648 P____P___PP___ SH081960 -14.9500 60.8500 -1 -15.5546 61.7304 99 -14.9500 60.8500 TC 65 -14.9346 60.8459 4 6 260
1960012S12081 1960 1 SI MM NOT_NAMED 1960-01-17 06:00:00 TS -15.1500 60.7750 reunion main 648 623 O____O___OO___ jtwc_sh SH081960 -15.0000 60.6000 -1 -15.6000 61.3000 99 9.90000 -15.0000 60.6000 TC 65 -15.0000 60.6000 4 6 260
1960012S12081 1960 1 SI MM NOT_NAMED 1960-01-17 09:00:00 TS -15.1974 60.4894 main 623 598 P____P___PP___ SH081960 -15.0425 60.3500 -1 -15.6492 60.9201 99 -15.0425 60.3500 TC 65 -15.0556 60.3377 4 6 259
1960012S12081 1960 1 SI MM NOT_NAMED 1960-01-17 12:00:00 TS -15.2591 60.2090 main 598 585 O____P___OP___ jtwc_sh SH081960 -15.1000 60.1000 -1 -15.7163 60.5586 99 -15.1000 60.1000 TC 65 -15.1200 60.0774 4 6 254
1960012S12081 1960 1 SI MM NOT_NAMED 1960-01-17 15:00:00 TS -15.3469 59.9323 main 585 566 P____P___PP___ SH081960 -15.1925 59.8425 -1 -15.8031 60.2159 99 -15.1925 59.8425 TC 65 -15.1994 59.8284 4 6 249
1960012S12081 1960 1 SI MM NOT_NAMED 1960-01-17 18:00:00 TS -15.4529 59.6731 main 556 548 O____P___OO___ jtwc_sh SH081960 -15.3000 59.6000 -1 -15.9116 59.8925 99 -15.3000 59.6000 TC 65 -15.3000 59.6000 4 5 246
1960012S12081 1960 1 SI MM NOT_NAMED 1960-01-17 21:00:00 TS -15.5523 59.4475 main 534 520 P____P___PP___ SH081960 -15.3850 59.3849 -1 -16.0436 59.5887 99 -15.3850 59.3849 TC 65 -15.3956 59.4314 4 5 241
1960012S12081 1960 1 SI MM NOT_NAMED 1960-01-18 00:00:00 TS -15.6795 59.2461 main 517 503 O____P___OP___ jtwc_sh SH081960 -15.5000 59.2000 -1 -16.2011 59.3051 99 -15.5000 59.2000 TC 65 -15.5170 59.2791 4 5 230
1960012S12081 1960 1 SI MM NOT_NAMED 1960-01-18 03:00:00 TS -15.8514 59.0748 main 492 465 P____P___PP___ SH081960 -15.6699 59.0723 -1 -16.3859 59.0420 99 -15.6699 59.0723 TC 65 -15.6799 59.1124 4 5 222
1960012S12081 1960 1 SI MM NOT_NAMED 1960-01-18 06:00:00 TS -16.0750 58.8750 reunion main 465 435 O____O___OO___ jtwc_sh SH081960 -15.9000 58.9000 -1 -16.6000 58.8000 99 9.90000 -15.9000 58.9000 TC 65 -15.9000 58.9000 4 7 225
1960012S12081 1960 1 SI MM NOT_NAMED 1960-01-18 09:00:00 TS -16.3307 58.5771 main 435 396 P____P___PP___ SH081960 -16.1701 58.5800 -1 -16.8020 58.5840 99 -16.1701 58.5800 TC 65 -16.1808 58.5645 4 8 227
1960012S12081 1960 1 SI MM NOT_NAMED 1960-01-18 12:00:00 TS -16.6373 58.2446 main 395 347 O____P___OP___ jtwc_sh SH081960 -16.5000 58.2000 -1 -17.0310 58.3925 99 -16.5000 58.2000 TC 65 -16.5183 58.1861 4 9 224
1960012S12081 1960 1 SI MM NOT_NAMED 1960-01-18 15:00:00 TS -16.9889 57.9185 main 347 313 P____P___PP___ SH081960 -16.8851 57.8201 -1 -17.2891 58.2192 99 -16.8851 57.8201 TC 65 -16.8965 57.8145 4 9 218
1960012S12081 1960 1 SI MM NOT_NAMED 1960-01-18 18:00:00 TS -17.3697 57.6394 main 302 268 O____P___OO___ jtwc_sh SH081960 -17.3000 57.5000 -1 -17.5789 58.0578 99 -17.3000 57.5000 TC 65 -17.3000 57.5000 4 9 210
1960012S12081 1960 1 SI MM NOT_NAMED 1960-01-18 21:00:00 TS -17.7425 57.4579 main 268 224 P____P___PP___ SH081960 -17.6924 57.3123 -1 -17.9025 57.9016 99 -17.6924 57.3123 TC 65 -17.6828 57.3055 4 8 201
1960012S12081 1960 1 SI MM NOT_NAMED 1960-01-19 00:00:00 TS -18.1380 57.3296 main 224 181 O____P___OP___ jtwc_sh SH081960 -18.1000 57.2000 -1 -18.2623 57.7444 99 -18.1000 57.2000 TC 65 -18.0896 57.1740 4 9 196
1960012S12081 1960 1 SI MM NOT_NAMED 1960-01-19 03:00:00 TS -18.5606 57.2112 main 170 129 P____P___PP___ SH081960 -18.5275 57.0924 -1 -18.6607 57.5794 99 -18.5275 57.0924 TC 65 -18.5267 57.0806 4 9 194
1960012S12081 1960 1 SI MM NOT_NAMED 1960-01-19 06:00:00 TS -19.0250 57.1000 reunion main 129 85 O____O___OO___ jtwc_sh SH081960 -19.0000 57.0000 -1 -19.1000 57.4000 99 9.90000 -19.0000 57.0000 TC 65 -19.0000 57.0000 4 10 194
1960012S12081 1960 1 SI MM NOT_NAMED 1960-01-19 09:00:00 TS -19.5414 56.9487 main 91 66 P____P___PP___ SH081960 -19.5350 56.9000 -1 -19.5897 57.1104 99 -19.5350 56.9000 TC 65 -19.5060 56.8847 4 11 195
1960012S12081 1960 1 SI MM NOT_NAMED 1960-01-19 12:00:00 TS -20.0932 56.7941 main 66 61 O____P___OP___ jtwc_sh SH081960 -20.1000 56.8000 -1 -20.1251 56.7990 99 -20.1000 56.8000 TC 65 -20.0476 56.7775 4 12 195
1960012S12081 1960 1 SI MM NOT_NAMED 1960-01-19 15:00:00 TS -20.6527 56.6409 main 76 72 P____P___PP___ SH081960 -20.6500 56.6999 -1 -20.6954 56.4820 99 -20.6500 56.6999 TC 65 -20.6154 56.6816 4 12 194
1960012S12081 1960 1 SI MM NOT_NAMED 1960-01-19 18:00:00 TS -21.2225 56.4940 main 72 63 O____P___OO___ jtwc_sh SH081960 -21.2000 56.6000 -1 -21.2899 56.1758 99 -21.2000 56.6000 TC 65 -21.2000 56.6000 4 12 195
1960012S12081 1960 1 SI MM NOT_NAMED 1960-01-19 21:00:00 TS -21.7731 56.3303 main 76 76 P____P___PP___ SH081960 -21.7350 56.4851 -1 -21.8980 55.8972 99 -21.7350 56.4851 TC 65 -21.7245 56.4536 4 12 194
1960012S12081 1960 1 SI MM NOT_NAMED 1960-01-20 00:00:00 TS -22.3453 56.1992 main 118 118 O____P___OP___ jtwc_sh SH081960 -22.3000 56.4000 -1 -22.5092 55.6633 99 -22.3000 56.4000 TC 65 -22.2720 56.3333 4 12 190
1960012S12081 1960 1 SI MM NOT_NAMED 1960-01-20 03:00:00 TS -22.9442 56.1136 main 175 175 P____P___PP___ SH081960 -22.8899 56.3334 -1 -23.1133 55.4916 99 -22.8899 56.3334 TC 65 -22.8835 56.2960 4 13 182
1960012S12081 1960 1 SI MM NOT_NAMED 1960-01-20 06:00:00 TS -23.6250 56.1500 reunion main 253 253 O____O___OO___ jtwc_sh SH081960 -23.6000 56.4000 -1 -23.7000 55.4000 99 9.90000 -23.6000 56.4000 TC 65 -23.6000 56.4000 4 15 172
1960012S12081 1960 1 SI MM NOT_NAMED 1960-01-20 09:00:00 TS -24.4399 56.3509 main 345 345 P____P___PP___ SH081960 -24.4974 56.6603 -1 -24.2613 55.4018 99 -24.4974 56.6603 TC 65 -24.5036 56.6812 4 18 164
1960012S12081 1960 1 SI MM NOT_NAMED 1960-01-20 12:00:00 TS -25.3258 56.7014 main 450 450 O____P___OP___ jtwc_sh SH081960 -25.5000 57.1000 -1 -24.7984 55.4906 99 -25.5000 57.1000 TC 65 -25.5048 57.1149 4 19 158
1960012S12081 1960 1 SI MM NOT_NAMED 1960-01-20 15:00:00 TS -26.2221 57.1578 main 560 560 P____P___PP___ SH081960 -26.5225 57.6547 -1 -25.3149 55.6551 99 -26.5225 57.6547 TC 65 -26.5285 57.6666 4 20 153
1960012S12081 1960 1 SI MM NOT_NAMED 1960-01-20 18:00:00 TS -27.0785 57.6959 main 671 671 O____P___OO___ jtwc_sh SH081960 -27.5000 58.3000 -1 -25.8139 55.8838 99 -27.5000 58.3000 TC 65 -27.5000 58.3000 4 19 149
1960012S12081 1960 1 SI MM NOT_NAMED 1960-01-20 21:00:00 TS -27.8301 58.2279 main 761 761 P____P___PP___ SH081960 -28.3444 58.9215 -1 -26.2987 56.1647 99 -28.3444 58.9215 TC 65 -28.3330 58.9039 4 19 144
1960012S12081 1960 1 SI MM NOT_NAMED 1960-01-21 00:00:00 TS -28.6349 58.9727 main 874 874 O____P___OP___ jtwc_sh SH081960 -29.1000 59.6000 -1 -26.7725 56.4859 99 -29.1000 59.6000 TC 65 -29.1017 59.5831 4 22 139
1960012S12081 1960 1 SI MM NOT_NAMED 1960-01-21 03:00:00 TS -29.4520 59.8418 main 997 997 P____P___PP___ SH081960 -29.8216 60.3416 -1 -27.2385 56.8352 99 -29.8216 60.3416 TC 65 -29.8196 60.3456 4 24 135
1960012S12081 1960 1 SI MM NOT_NAMED 1960-01-21 06:00:00 TS -30.2846 60.8923 reunion main 1126 1126 O____O___OO___ jtwc_sh SH081960 -30.5000 61.2000 -1 -27.7000 57.2000 99 9.90000 -30.5000 61.2000 TC 65 -30.5000 61.2000 4 27 130
1960012S12081 1960 1 SI MM NOT_NAMED 1960-01-21 09:00:00 TS -31.1732 62.1931 main 1275 1275 P________PP___ SH081960 -31.1650 62.2132 -1 99 -31.1650 62.2132 TC 65 -31.1897 62.1528 4 25 127
1960012S12081 1960 1 SI MM NOT_NAMED 1960-01-21 12:00:00 TS -31.8134 63.2651 main 1379 1379 O________OP___ jtwc_sh SH081960 -31.8000 63.3000 -1 99 -31.8000 63.3000 TC 65 -31.8404 63.1954 4 22 125
1960012S12081 1960 1 SI MM NOT_NAMED 1960-01-21 15:00:00 TS -32.4296 64.3309 main 1481 1481 P________PP___ SH081960 -32.4216 64.3511 -1 99 -32.4216 64.3511 TC 65 -32.4455 64.2906 4 22 123
1960012S12081 1960 1 SI MM NOT_NAMED 1960-01-21 18:00:00 TS -33.0000 65.4000 main 1589 1589 O________OO___ jtwc_sh SH081960 -33.0000 65.4000 -1 99 -33.0000 65.4000 TC 65 -33.0000 65.4000 4 21 121
1960012S12081 1960 1 SI MM NOT_NAMED 1960-01-21 21:00:00 TS -33.5201 66.4598 main 1691 1650 P________PP___ SH081960 -33.5289 66.4438 -1 99 -33.5289 66.4438 TC 65 -33.5026 66.4919 4 20 119
1960012S12081 1960 1 SI MM NOT_NAMED 1960-01-22 00:00:00 TS -33.9875 67.5222 main 1650 1602 O________OP___ jtwc_sh SH081960 -34.0000 67.5000 -1 99 -34.0000 67.5000 TC 65 -33.9625 67.5667 4 20 117
1960012S12081 1960 1 SI MM NOT_NAMED 1960-01-22 03:00:00 TS -34.4085 68.6030 main 1602 1558 P________PP___ SH081960 -34.4171 68.5880 -1 99 -34.4171 68.5880 TC 65 -34.3913 68.6331 4 20 114
1960012S12081 1960 1 SI MM NOT_NAMED 1960-01-22 06:00:00 TS -34.8000 69.7000 main 1558 O________OO___ jtwc_sh SH081960 -34.8000 69.7000 -1 -34.8000 69.7000 TC 65 -34.8000 69.7000 4 20 113

IBTrACS Databaseについて

本データベースは、米国NOAAが公開する1842年以降の世界の熱帯低気圧のベストトラックデータアーカイブInternational Best Track Archive for Climate Stewardship (IBTrACS)を、ウェブで閲覧しやすい形式に変換したものです。

最終更新日:2021-12-01